createdAt,value
2019-04-27T00:02:24.797Z,4.30
2019-04-27T00:05:04.399Z,3.90
2019-04-27T00:07:51.405Z,4.13
2019-04-27T00:10:37.030Z,3.70
2019-04-27T00:13:08.498Z,4.47
2019-04-27T00:16:05.644Z,3.80
2019-04-27T00:18:58.212Z,4.67
2019-04-27T00:21:50.147Z,3.80
2019-04-27T00:24:20.730Z,3.87
2019-04-27T00:26:51.582Z,3.63
2019-04-27T00:29:23.593Z,4.23
2019-04-27T00:31:55.753Z,3.47
2019-04-27T00:34:26.842Z,4.30
2019-04-27T00:37:09.614Z,3.53
2019-04-27T00:39:49.748Z,3.45
2019-04-27T00:42:20.563Z,3.73
2019-04-27T00:44:51.157Z,3.50
2019-04-27T00:47:23.815Z,3.67
2019-04-27T00:49:55.045Z,3.60
2019-04-27T00:52:25.700Z,3.40
2019-04-27T00:54:57.576Z,3.72
2019-04-27T00:57:39.329Z,3.10
2019-04-27T01:00:36.608Z,3.23
2019-04-27T01:03:10.603Z,3.10
2019-04-27T01:05:42.695Z,3.25
2019-04-27T01:08:13.971Z,3.07
2019-04-27T01:10:44.787Z,2.80
2019-04-27T01:13:15.625Z,2.73
2019-04-27T01:15:46.254Z,2.98
2019-04-27T01:18:16.916Z,2.73
2019-04-27T01:20:48.894Z,3.25
2019-04-27T01:23:19.896Z,2.93
2019-04-27T01:26:25.372Z,3.12
2019-04-27T01:29:01.139Z,3.20
2019-04-27T01:31:33.239Z,3.72
2019-04-27T01:34:04.017Z,3.57
2019-04-27T01:36:35.111Z,3.63
2019-04-27T01:39:11.588Z,3.53
2019-04-27T01:41:42.436Z,3.53
2019-04-27T01:44:13.071Z,3.17
2019-04-27T01:46:43.976Z,3.30
2019-04-27T01:49:14.858Z,3.60
2019-04-27T01:51:45.750Z,3.17
2019-04-27T01:54:19.381Z,3.63
2019-04-27T01:56:50.384Z,3.60
2019-04-27T01:59:20.970Z,3.77
2019-04-27T02:02:19.223Z,3.02
2019-04-27T02:05:08.949Z,3.30
2019-04-27T02:07:41.327Z,3.43
2019-04-27T02:10:13.672Z,3.20
2019-04-27T02:12:44.554Z,3.33
2019-04-27T02:15:15.203Z,3.20
2019-04-27T02:17:46.103Z,3.20
2019-04-27T02:20:17.053Z,3.40
2019-04-27T02:22:48.553Z,2.90
2019-04-27T02:25:21.117Z,3.20
2019-04-27T02:27:56.982Z,3.43
2019-04-27T02:30:45.378Z,3.27
2019-04-27T02:33:33.271Z,3.00
2019-04-27T02:36:03.901Z,2.83
2019-04-27T02:38:35.118Z,3.10
2019-04-27T02:41:06.397Z,2.97
2019-04-27T02:44:01.358Z,2.93
2019-04-27T02:46:31.555Z,3.20
2019-04-27T02:49:06.286Z,2.90
2019-04-27T02:51:44.360Z,2.70
2019-04-27T02:54:15.012Z,2.93
2019-04-27T02:56:45.650Z,2.75
2019-04-27T02:59:16.271Z,3.03
2019-04-27T03:01:56.380Z,2.80
2019-04-27T03:04:26.969Z,3.00
2019-04-27T03:07:00.098Z,3.05
2019-04-27T03:09:30.631Z,3.77
2019-04-27T03:12:03.171Z,3.10
2019-04-27T03:14:55.886Z,3.30
2019-04-27T03:17:32.084Z,2.87
2019-04-27T03:20:10.873Z,3.27
2019-04-27T03:22:44.301Z,3.13
2019-04-27T03:25:25.593Z,3.20
2019-04-27T03:28:00.285Z,3.10
2019-04-27T03:30:36.170Z,2.90
2019-04-27T03:33:05.329Z,3.30
2019-04-27T03:35:37.233Z,2.90
2019-04-27T03:38:12.103Z,3.07
2019-04-27T03:40:41.237Z,2.97
2019-04-27T03:43:20.128Z,2.83
2019-04-27T03:45:52.454Z,2.80
2019-04-27T03:48:23.559Z,2.97
2019-04-27T03:51:20.043Z,2.80
2019-04-27T03:54:05.639Z,2.90
2019-04-27T03:56:42.790Z,3.07
2019-04-27T03:59:40.533Z,3.10
2019-04-27T04:02:10.690Z,3.47
2019-04-27T04:04:41.477Z,3.17
2019-04-27T04:07:16.517Z,3.07
2019-04-27T04:09:50.076Z,3.05
2019-04-27T04:12:30.217Z,2.87
2019-04-27T04:15:01.112Z,2.80
2019-04-27T04:17:33.355Z,2.98
2019-04-27T04:20:04.514Z,2.63
2019-04-27T04:22:35.126Z,2.80
2019-04-27T04:25:06.424Z,3.13
2019-04-27T04:27:37.067Z,2.80
2019-04-27T04:30:09.748Z,2.97
2019-04-27T04:32:41.298Z,2.85
2019-04-27T04:35:22.969Z,3.10
2019-04-27T04:37:53.656Z,2.70
2019-04-27T04:40:31.550Z,3.03
2019-04-27T04:43:11.115Z,3.03
2019-04-27T04:45:50.266Z,2.90
2019-04-27T04:48:21.275Z,3.20
2019-04-27T04:50:52.056Z,2.93
2019-04-27T04:53:22.633Z,3.07
2019-04-27T04:55:53.205Z,3.00
2019-04-27T04:58:24.120Z,3.33
2019-04-27T05:00:55.041Z,3.00
2019-04-27T05:03:25.633Z,2.87
2019-04-27T05:05:56.262Z,2.50
2019-04-27T05:08:26.897Z,3.23
2019-04-27T05:10:59.511Z,2.90
2019-04-27T05:13:29.756Z,3.00
2019-04-27T05:16:00.403Z,3.03
2019-04-27T05:18:31.183Z,2.93
2019-04-27T05:21:08.683Z,3.17
2019-04-27T05:23:39.539Z,3.40
2019-04-27T05:26:10.383Z,3.43
2019-04-27T05:28:41.236Z,3.03
2019-04-27T05:31:12.182Z,3.50
2019-04-27T05:33:43.311Z,3.15
2019-04-27T05:36:14.176Z,3.60
2019-04-27T05:38:46.046Z,3.40
2019-04-27T05:41:18.743Z,3.77
2019-04-27T05:44:10.729Z,3.13
2019-04-27T05:46:58.782Z,3.27
2019-04-27T05:49:51.392Z,3.10
2019-04-27T05:52:31.643Z,3.40
2019-04-27T05:55:02.297Z,2.80
2019-04-27T05:57:33.566Z,3.12
2019-04-27T06:00:04.973Z,3.23
2019-04-27T06:02:35.579Z,3.13
2019-04-27T06:05:08.819Z,2.80
2019-04-27T06:07:39.743Z,3.02
2019-04-27T06:10:13.132Z,2.90
2019-04-27T06:12:43.683Z,3.20
2019-04-27T06:15:14.515Z,3.37
2019-04-27T06:17:45.522Z,2.75
2019-04-27T06:20:16.447Z,2.40
2019-04-27T06:22:48.937Z,2.80
2019-04-27T06:25:21.651Z,2.20
2019-04-27T06:27:51.992Z,2.40
2019-04-27T06:30:22.605Z,2.20
2019-04-27T06:32:53.317Z,2.30
2019-04-27T06:35:23.953Z,1.73
2019-04-27T06:37:54.557Z,1.90
2019-04-27T06:40:25.349Z,1.73
2019-04-27T06:42:55.941Z,1.57
2019-04-27T06:45:26.544Z,1.90
2019-04-27T06:47:59.429Z,1.90
2019-04-27T06:50:30.050Z,1.83
2019-04-27T06:53:00.675Z,1.67
2019-04-27T06:55:31.464Z,1.80
2019-04-27T06:58:02.504Z,1.43
2019-04-27T07:00:33.753Z,1.50
2019-04-27T07:03:04.465Z,1.50
2019-04-27T07:05:35.593Z,1.47
2019-04-27T07:08:06.278Z,1.37
2019-04-27T07:10:36.853Z,1.00
2019-04-27T07:13:09.414Z,1.10
2019-04-27T07:15:40.611Z,1.10
2019-04-27T07:18:15.185Z,1.10
2019-04-27T07:20:46.036Z,1.20
2019-04-27T07:23:16.827Z,1.20
2019-04-27T07:25:48.796Z,1.03
2019-04-27T07:28:19.796Z,1.07
2019-04-27T07:30:50.627Z,1.27
2019-04-27T07:33:21.492Z,0.77
2019-04-27T07:35:52.362Z,0.80
2019-04-27T07:38:22.993Z,0.73
2019-04-27T07:40:53.694Z,0.97
2019-04-27T07:43:33.425Z,0.90
2019-04-27T07:46:05.416Z,1.00
2019-04-27T07:48:36.070Z,0.80
2019-04-27T07:51:08.944Z,0.80
2019-04-27T07:53:39.860Z,0.80
2019-04-27T07:56:10.892Z,0.77
2019-04-27T07:58:41.803Z,0.80
2019-04-27T08:01:13.142Z,1.13
2019-04-27T08:03:43.935Z,0.70
2019-04-27T08:06:14.717Z,0.83
2019-04-27T08:08:45.839Z,0.80
2019-04-27T08:11:16.818Z,0.70
2019-04-27T08:13:49.054Z,0.90
2019-04-27T08:16:20.726Z,0.90
2019-04-27T08:18:52.226Z,0.80
2019-04-27T08:21:22.850Z,0.87
2019-04-27T08:23:53.484Z,0.67
2019-04-27T08:26:33.388Z,0.83
2019-04-27T08:29:20.792Z,0.90
2019-04-27T08:31:56.486Z,0.80
2019-04-27T08:34:33.690Z,0.80
2019-04-27T08:37:05.441Z,0.87
2019-04-27T08:39:36.033Z,0.60
2019-04-27T08:42:09.608Z,0.60
2019-04-27T08:44:40.890Z,0.70
2019-04-27T08:47:12.522Z,0.60
2019-04-27T08:49:43.181Z,0.80
2019-04-27T08:52:13.795Z,1.07
2019-04-27T08:54:44.884Z,0.70
2019-04-27T08:57:15.701Z,0.77
2019-04-27T08:59:46.516Z,0.73
2019-04-27T09:02:17.128Z,0.77
2019-04-27T09:04:49.330Z,0.70
2019-04-27T09:07:44.444Z,0.90
2019-04-27T09:10:25.605Z,0.80
2019-04-27T09:13:13.927Z,0.80
2019-04-27T09:16:05.605Z,0.90
2019-04-27T09:18:36.223Z,0.67
2019-04-27T09:21:06.868Z,1.10
2019-04-27T09:23:38.890Z,0.70
2019-04-27T09:26:11.177Z,0.87
2019-04-27T09:28:41.967Z,0.90
2019-04-27T09:31:12.789Z,1.03
2019-04-27T09:33:43.978Z,0.98
2019-04-27T09:36:16.490Z,0.70
2019-04-27T09:38:47.826Z,1.00
2019-04-27T09:41:18.803Z,0.80
2019-04-27T09:43:50.101Z,1.10
2019-04-27T09:46:21.780Z,0.70
2019-04-27T09:48:52.715Z,1.10
2019-04-27T09:51:23.566Z,0.80
2019-04-27T09:53:54.182Z,0.80
2019-04-27T09:56:26.130Z,0.90
2019-04-27T09:58:57.305Z,0.90
2019-04-27T10:01:28.823Z,1.37
2019-04-27T10:03:59.675Z,1.30
2019-04-27T10:06:30.411Z,1.20
2019-04-27T10:09:01.021Z,1.10
2019-04-27T10:11:33.263Z,1.70
2019-04-27T10:14:05.822Z,1.20
2019-04-27T10:16:36.777Z,1.03
2019-04-27T10:19:07.798Z,1.30
2019-04-27T10:21:38.695Z,1.20
2019-04-27T10:24:09.409Z,1.30
2019-04-27T10:26:40.057Z,1.55
2019-04-27T10:29:10.943Z,1.60
2019-04-27T10:31:41.825Z,1.40
2019-04-27T10:34:12.793Z,1.37
2019-04-27T10:36:45.929Z,1.47
2019-04-27T10:39:17.145Z,1.37
2019-04-27T10:41:48.194Z,1.50
2019-04-27T10:44:19.003Z,1.33
2019-04-27T10:46:49.899Z,1.50
2019-04-27T10:49:21.295Z,1.20
2019-04-27T10:51:52.109Z,1.32
2019-04-27T10:54:22.932Z,1.50
2019-04-27T10:56:55.772Z,1.00
2019-04-27T10:59:27.669Z,1.10
2019-04-27T11:01:58.543Z,1.53
2019-04-27T11:04:54.211Z,1.43
2019-04-27T11:07:27.557Z,0.90
2019-04-27T11:09:58.135Z,1.07
2019-04-27T11:12:28.988Z,1.00
2019-04-27T11:14:59.845Z,1.00
2019-04-27T11:17:30.507Z,1.00
2019-04-27T11:20:02.731Z,1.13
2019-04-27T11:22:36.191Z,1.12
2019-04-27T11:25:07.475Z,0.97
2019-04-27T11:27:38.163Z,0.80
2019-04-27T11:30:10.522Z,0.90
2019-04-27T11:32:41.436Z,0.93
2019-04-27T11:35:50.425Z,0.80
2019-04-27T11:38:21.131Z,0.90
2019-04-27T11:40:52.616Z,1.15
2019-04-27T11:43:23.297Z,1.30
2019-04-27T11:45:55.781Z,1.20
2019-04-27T11:48:26.384Z,1.27
2019-04-27T11:50:56.954Z,0.90
2019-04-27T11:53:27.708Z,0.80
2019-04-27T11:55:58.435Z,0.87
2019-04-27T11:58:29.247Z,1.00
2019-04-27T12:00:59.960Z,0.80
2019-04-27T12:03:30.915Z,0.90
2019-04-27T12:06:01.568Z,0.80
2019-04-27T12:08:33.583Z,0.90
2019-04-27T12:11:05.837Z,1.20
2019-04-27T12:13:36.547Z,1.20
2019-04-27T12:16:07.578Z,1.30
2019-04-27T12:18:38.234Z,0.95
2019-04-27T12:21:08.864Z,0.90
2019-04-27T12:23:41.396Z,1.03
2019-04-27T12:26:27.943Z,1.00
2019-04-27T12:29:00.005Z,0.90
2019-04-27T12:31:35.791Z,1.80
2019-04-27T12:34:06.531Z,1.47
2019-04-27T12:36:37.433Z,2.50
2019-04-27T12:39:15.658Z,1.57
2019-04-27T12:41:46.439Z,1.45
2019-04-27T12:44:17.350Z,1.17
2019-04-27T12:46:48.350Z,1.47
2019-04-27T12:49:19.024Z,1.63
2019-04-27T12:51:50.223Z,2.30
2019-04-27T12:54:49.221Z,1.60
2019-04-27T12:57:41.995Z,1.87
2019-04-27T13:00:19.064Z,1.80
2019-04-27T13:02:50.295Z,1.55
2019-04-27T13:05:21.217Z,1.37
2019-04-27T13:07:52.417Z,1.92
2019-04-27T13:10:23.408Z,1.90
2019-04-27T13:12:56.067Z,1.47
2019-04-27T13:15:28.292Z,1.50
2019-04-27T13:17:59.210Z,1.40
2019-04-27T13:20:29.939Z,1.87
2019-04-27T13:23:01.808Z,1.87
2019-04-27T13:25:33.962Z,2.13
2019-04-27T13:28:05.648Z,1.20
2019-04-27T13:30:36.633Z,1.33
2019-04-27T13:33:07.263Z,1.70
2019-04-27T13:35:38.412Z,1.30
2019-04-27T13:38:09.310Z,1.70
2019-04-27T13:40:41.474Z,1.30
2019-04-27T13:43:34.044Z,1.40
2019-04-27T13:46:25.897Z,1.73
2019-04-27T13:49:18.089Z,1.30
2019-04-27T13:54:27.214Z,1.00
2019-04-27T13:56:56.407Z,1.03
2019-04-27T13:59:27.344Z,1.10
2019-04-27T14:01:58.085Z,0.90
2019-04-27T14:04:28.691Z,0.93
2019-04-27T14:06:59.408Z,1.20
2019-04-27T14:09:30.718Z,0.93
2019-04-27T14:12:28.393Z,1.00
2019-04-27T14:14:59.085Z,0.90
2019-04-27T14:17:29.967Z,1.20
2019-04-27T14:20:01.269Z,1.27
2019-04-27T14:22:31.903Z,1.37
2019-04-27T14:25:02.615Z,1.47
2019-04-27T14:27:40.678Z,1.35
2019-04-27T14:30:14.013Z,1.17
2019-04-27T14:32:44.885Z,1.20
2019-04-27T14:35:15.582Z,1.10
2019-04-27T14:37:48.369Z,1.10
2019-04-27T14:40:18.890Z,1.13
2019-04-27T14:42:50.526Z,1.30
2019-04-27T14:45:22.272Z,1.00
2019-04-27T14:47:53.359Z,1.10
2019-04-27T14:50:24.033Z,1.20
2019-04-27T14:52:54.639Z,0.90
2019-04-27T14:55:25.280Z,1.10
2019-04-27T14:57:55.953Z,0.90
2019-04-27T15:00:26.792Z,0.77
2019-04-27T15:02:59.056Z,1.10
2019-04-27T15:05:29.892Z,0.80
2019-04-27T15:08:01.638Z,1.20
2019-04-27T15:10:36.095Z,0.88
2019-04-27T15:13:08.362Z,0.70
2019-04-27T15:15:40.386Z,1.00
2019-04-27T15:18:11.425Z,0.53
2019-04-27T15:20:46.509Z,0.78
2019-04-27T15:23:16.933Z,0.50
2019-04-27T15:25:47.554Z,0.70
2019-04-27T15:28:22.766Z,0.67
2019-04-27T15:31:23.610Z,0.53
2019-04-27T15:34:05.569Z,0.70
2019-04-27T15:36:58.481Z,0.70
2019-04-27T15:40:08.250Z,0.70
2019-04-27T15:42:41.577Z,1.10
2019-04-27T15:45:15.983Z,0.80
2019-04-27T15:47:49.244Z,0.70
2019-04-27T15:50:18.289Z,0.73
2019-04-27T15:52:49.134Z,0.80
2019-04-27T15:55:32.343Z,0.90
2019-04-27T15:57:52.744Z,0.88
2019-04-27T16:00:28.981Z,0.80
2019-04-27T16:02:59.657Z,0.70
2019-04-27T16:05:32.319Z,0.70
2019-04-27T16:08:06.282Z,0.70
2019-04-27T16:10:37.277Z,0.80
2019-04-27T16:13:13.423Z,0.80
2019-04-27T16:15:40.892Z,0.85
2019-04-27T16:18:11.584Z,0.90
2019-04-27T16:20:42.732Z,0.85
2019-04-27T16:23:13.612Z,0.93
2019-04-27T16:25:48.537Z,0.90
2019-04-27T16:28:18.395Z,0.80
2019-04-27T16:30:52.843Z,0.87
2019-04-27T16:33:23.601Z,1.10
2019-04-27T16:36:00.334Z,1.37
2019-04-27T16:38:45.487Z,1.17
2019-04-27T16:41:16.237Z,1.10
2019-04-27T16:43:46.812Z,1.15
2019-04-27T16:46:19.094Z,1.00
2019-04-27T16:48:50.531Z,0.85
2019-04-27T16:51:21.522Z,1.00
2019-04-27T16:53:54.583Z,2.05
2019-04-27T16:56:28.527Z,1.20
2019-04-27T16:59:11.507Z,1.07
2019-04-27T17:01:32.066Z,1.17
2019-04-27T17:04:06.402Z,1.20
2019-04-27T17:06:39.192Z,0.90
2019-04-27T17:09:11.466Z,1.40
2019-04-27T17:11:43.963Z,1.15
2019-04-27T17:14:35.223Z,1.40
2019-04-27T17:17:28.303Z,1.10
2019-04-27T17:20:01.201Z,1.00
2019-04-27T17:22:31.990Z,1.20
2019-04-27T17:25:02.635Z,1.00
2019-04-27T17:27:46.056Z,0.90
2019-04-27T17:30:18.881Z,1.47
2019-04-27T17:32:59.141Z,1.00
2019-04-27T17:35:34.680Z,1.27
2019-04-27T17:38:03.713Z,1.37
2019-04-27T17:40:36.023Z,1.10
2019-04-27T17:43:10.240Z,1.03
2019-04-27T17:45:39.803Z,1.40
2019-04-27T17:48:11.217Z,1.30
2019-04-27T17:50:42.936Z,0.90
2019-04-27T17:53:13.785Z,0.80
2019-04-27T17:55:44.713Z,1.27
2019-04-27T17:58:18.008Z,0.80
2019-04-27T18:00:48.334Z,0.70
2019-04-27T18:03:21.108Z,0.87
2019-04-27T18:05:52.639Z,0.80
2019-04-27T18:08:25.237Z,0.63
2019-04-27T18:11:00.313Z,0.80
2019-04-27T18:13:31.004Z,0.90
2019-04-27T18:16:01.830Z,0.90
2019-04-27T18:18:51.708Z,0.70
2019-04-27T18:21:28.274Z,0.90
2019-04-27T18:24:03.230Z,0.60
2019-04-27T18:26:49.579Z,0.47
2019-04-27T18:29:18.457Z,0.60
2019-04-27T18:31:53.375Z,0.70
2019-04-27T18:34:21.725Z,0.63
2019-04-27T18:36:52.884Z,0.60
2019-04-27T18:39:23.626Z,0.80
2019-04-27T18:41:54.517Z,0.80
2019-04-27T18:44:29.297Z,0.87
2019-04-27T18:46:58.844Z,0.70
2019-04-27T18:49:48.961Z,0.80
2019-04-27T18:52:58.106Z,0.57
2019-04-27T18:55:28.994Z,0.60
2019-04-27T18:58:02.079Z,0.70
2019-04-27T19:00:32.557Z,0.77
2019-04-27T19:03:03.192Z,0.73
2019-04-27T19:05:40.082Z,1.62
2019-04-27T19:08:07.841Z,0.90
2019-04-27T19:10:38.843Z,0.85
2019-04-27T19:13:09.706Z,0.77
2019-04-27T19:15:40.998Z,1.07
2019-04-27T19:18:11.803Z,0.87
2019-04-27T19:20:43.203Z,0.90
2019-04-27T19:23:14.088Z,0.80
2019-04-27T19:26:03.736Z,0.60
2019-04-27T19:29:04.840Z,0.75
2019-04-27T19:31:39.408Z,0.80
2019-04-27T19:34:10.127Z,0.80
2019-04-27T19:36:40.899Z,0.80
2019-04-27T19:39:14.023Z,1.13
2019-04-27T19:41:56.875Z,0.90
2019-04-27T19:44:18.759Z,0.90
2019-04-27T19:46:49.915Z,0.97
2019-04-27T19:49:20.839Z,0.77
2019-04-27T19:51:52.495Z,0.90
2019-04-27T19:54:23.524Z,0.80
2019-04-27T19:56:54.323Z,1.10
2019-04-27T19:59:37.974Z,1.03
2019-04-27T20:02:14.550Z,1.60
2019-04-27T20:04:50.504Z,1.80
2019-04-27T20:07:21.447Z,1.30
2019-04-27T20:10:00.280Z,1.77
2019-04-27T20:12:31.467Z,2.30
2019-04-27T20:15:03.476Z,1.00
2019-04-27T20:17:35.614Z,0.80
2019-04-27T20:20:06.900Z,0.90
2019-04-27T20:22:37.842Z,0.90
2019-04-27T20:25:11.075Z,0.82
2019-04-27T20:27:48.730Z,0.75
2019-04-27T20:30:15.223Z,0.72
2019-04-27T20:32:46.435Z,0.70
2019-04-27T20:35:17.069Z,1.03
2019-04-27T20:37:51.704Z,0.75
2019-04-27T20:40:23.940Z,0.77
2019-04-27T20:42:54.789Z,0.80
2019-04-27T20:45:26.474Z,0.63
2019-04-27T20:47:57.175Z,0.70
2019-04-27T20:50:28.010Z,0.77
2019-04-27T20:53:01.259Z,0.70
2019-04-27T20:55:32.306Z,1.37
2019-04-27T20:58:03.290Z,1.30
2019-04-27T21:00:35.367Z,1.07
2019-04-27T21:03:15.818Z,0.77
2019-04-27T21:06:04.785Z,0.80
2019-04-27T21:08:36.778Z,0.90
2019-04-27T21:11:07.413Z,1.10
2019-04-27T21:13:38.082Z,0.83
2019-04-27T21:16:10.733Z,0.93
2019-04-27T21:18:42.848Z,0.73
2019-04-27T21:21:13.604Z,1.50
2019-04-27T21:23:44.547Z,1.00
2019-04-27T21:26:15.280Z,1.13
2019-04-27T21:28:45.997Z,0.93
2019-04-27T21:31:17.088Z,1.10
2019-04-27T21:33:48.069Z,1.40
2019-04-27T21:36:19.337Z,1.20
2019-04-27T21:38:51.249Z,0.90
2019-04-27T21:41:22.710Z,1.03
2019-04-27T21:43:53.468Z,1.10
2019-04-27T21:46:24.162Z,1.17
2019-04-27T21:48:54.944Z,1.20
2019-04-27T21:51:25.590Z,1.20
2019-04-27T21:54:18.028Z,0.90
2019-04-27T21:56:49.215Z,0.80
2019-04-27T21:59:21.108Z,1.00
2019-04-27T22:01:55.375Z,0.90
2019-04-27T22:04:25.531Z,0.80
2019-04-27T22:06:56.305Z,0.63
2019-04-27T22:09:27.043Z,1.03
2019-04-27T22:11:58.260Z,0.90
2019-04-27T22:14:29.252Z,0.93
2019-04-27T22:17:00.835Z,1.10
2019-04-27T22:19:31.999Z,1.07
2019-04-27T22:22:04.586Z,0.67
2019-04-27T22:24:37.759Z,0.90
2019-04-27T22:27:08.423Z,0.90
2019-04-27T22:29:39.394Z,1.00
2019-04-27T22:32:10.224Z,1.20
2019-04-27T22:34:41.654Z,0.80
2019-04-27T22:37:12.309Z,1.10
2019-04-27T22:40:05.149Z,1.12
2019-04-27T22:43:01.605Z,1.07
2019-04-27T22:45:34.186Z,0.80
2019-04-27T22:48:04.967Z,1.17
2019-04-27T22:50:35.647Z,1.43
2019-04-27T22:53:08.443Z,1.00
2019-04-27T22:55:57.516Z,1.10
2019-04-27T22:58:28.287Z,1.20
2019-04-27T23:01:07.689Z,0.90
2019-04-27T23:03:41.341Z,1.00
2019-04-27T23:06:12.016Z,1.00
2019-04-27T23:08:43.056Z,0.90
2019-04-27T23:11:13.654Z,0.90
2019-04-27T23:13:44.505Z,1.37
2019-04-27T23:16:16.892Z,1.40
2019-04-27T23:18:47.529Z,1.17
2019-04-27T23:21:18.124Z,0.90
2019-04-27T23:23:49.234Z,1.02
2019-04-27T23:26:21.086Z,1.20
2019-04-27T23:28:52.085Z,1.22
2019-04-27T23:31:29.431Z,1.20
2019-04-27T23:34:01.754Z,1.23
2019-04-27T23:36:32.583Z,1.50
2019-04-27T23:39:03.478Z,1.23
2019-04-27T23:41:35.388Z,1.40
2019-04-27T23:44:06.343Z,1.10
2019-04-27T23:46:37.170Z,1.20
2019-04-27T23:49:08.021Z,1.30
2019-04-27T23:51:44.862Z,1.40
2019-04-27T23:54:15.509Z,1.07
2019-04-27T23:56:46.321Z,1.37
2019-04-27T23:59:24.607Z,1.10
